sensor_id;sensor_type;location;lat;lon;timestamp;P1;durP1;ratioP1;P2;durP2;ratioP2
5507;SDS011;2776;51.046;6.772;2024-03-22T00:00:17;17.20;;;8.10;;
5507;SDS011;2776;51.046;6.772;2024-03-22T00:02:42;15.57;;;8.80;;
5507;SDS011;2776;51.046;6.772;2024-03-22T00:05:09;15.67;;;8.20;;
5507;SDS011;2776;51.046;6.772;2024-03-22T00:07:35;20.50;;;8.90;;
5507;SDS011;2776;51.046;6.772;2024-03-22T00:10:03;15.37;;;8.47;;
5507;SDS011;2776;51.046;6.772;2024-03-22T00:12:30;19.77;;;9.17;;
5507;SDS011;2776;51.046;6.772;2024-03-22T00:14:58;19.00;;;9.10;;
5507;SDS011;2776;51.046;6.772;2024-03-22T00:17:24;20.93;;;9.43;;
5507;SDS011;2776;51.046;6.772;2024-03-22T00:19:50;17.13;;;8.70;;
5507;SDS011;2776;51.046;6.772;2024-03-22T00:22:16;15.10;;;7.30;;
5507;SDS011;2776;51.046;6.772;2024-03-22T00:24:43;22.57;;;9.97;;
5507;SDS011;2776;51.046;6.772;2024-03-22T00:27:09;15.57;;;7.87;;
5507;SDS011;2776;51.046;6.772;2024-03-22T00:29:36;18.13;;;9.10;;
5507;SDS011;2776;51.046;6.772;2024-03-22T00:32:04;16.10;;;8.73;;
5507;SDS011;2776;51.046;6.772;2024-03-22T00:34:32;16.87;;;8.30;;
5507;SDS011;2776;51.046;6.772;2024-03-22T00:36:58;16.60;;;8.93;;
5507;SDS011;2776;51.046;6.772;2024-03-22T00:39:25;15.90;;;7.57;;
5507;SDS011;2776;51.046;6.772;2024-03-22T00:41:50;17.30;;;8.43;;
5507;SDS011;2776;51.046;6.772;2024-03-22T00:44:17;18.37;;;8.53;;
5507;SDS011;2776;51.046;6.772;2024-03-22T00:46:43;15.60;;;8.23;;
5507;SDS011;2776;51.046;6.772;2024-03-22T00:49:11;17.43;;;7.83;;
5507;SDS011;2776;51.046;6.772;2024-03-22T00:51:38;17.47;;;8.20;;
5507;SDS011;2776;51.046;6.772;2024-03-22T00:54:04;17.10;;;8.27;;
5507;SDS011;2776;51.046;6.772;2024-03-22T00:56:30;17.30;;;7.93;;
5507;SDS011;2776;51.046;6.772;2024-03-22T00:58:57;20.27;;;8.17;;
5507;SDS011;2776;51.046;6.772;2024-03-22T01:01:23;15.27;;;6.90;;
5507;SDS011;2776;51.046;6.772;2024-03-22T01:03:50;20.40;;;7.87;;
5507;SDS011;2776;51.046;6.772;2024-03-22T01:06:17;17.77;;;8.23;;
5507;SDS011;2776;51.046;6.772;2024-03-22T01:08:48;18.50;;;7.83;;
5507;SDS011;2776;51.046;6.772;2024-03-22T01:11:14;14.40;;;6.80;;
5507;SDS011;2776;51.046;6.772;2024-03-22T01:13:41;19.13;;;8.30;;
5507;SDS011;2776;51.046;6.772;2024-03-22T01:16:06;20.67;;;8.10;;
5507;SDS011;2776;51.046;6.772;2024-03-22T01:18:34;15.97;;;7.40;;
5507;SDS011;2776;51.046;6.772;2024-03-22T01:21:00;18.30;;;8.37;;
5507;SDS011;2776;51.046;6.772;2024-03-22T01:23:28;21.30;;;8.07;;
5507;SDS011;2776;51.046;6.772;2024-03-22T01:25:54;18.70;;;7.80;;
5507;SDS011;2776;51.046;6.772;2024-03-22T01:28:21;18.03;;;7.97;;
5507;SDS011;2776;51.046;6.772;2024-03-22T01:30:47;16.00;;;7.60;;
5507;SDS011;2776;51.046;6.772;2024-03-22T01:33:14;13.70;;;6.93;;
5507;SDS011;2776;51.046;6.772;2024-03-22T01:35:39;14.37;;;7.23;;
5507;SDS011;2776;51.046;6.772;2024-03-22T01:38:06;19.63;;;7.77;;
5507;SDS011;2776;51.046;6.772;2024-03-22T01:40:33;14.83;;;6.90;;
5507;SDS011;2776;51.046;6.772;2024-03-22T01:43:00;11.50;;;6.80;;
5507;SDS011;2776;51.046;6.772;2024-03-22T01:45:27;16.17;;;7.47;;
5507;SDS011;2776;51.046;6.772;2024-03-22T01:47:58;15.37;;;6.60;;
5507;SDS011;2776;51.046;6.772;2024-03-22T01:50:24;13.00;;;7.07;;
5507;SDS011;2776;51.046;6.772;2024-03-22T01:52:52;14.33;;;6.87;;
5507;SDS011;2776;51.046;6.772;2024-03-22T01:55:18;15.17;;;6.93;;
5507;SDS011;2776;51.046;6.772;2024-03-22T01:57:46;13.30;;;7.13;;
5507;SDS011;2776;51.046;6.772;2024-03-22T02:00:13;15.40;;;7.33;;
5507;SDS011;2776;51.046;6.772;2024-03-22T02:02:40;15.93;;;6.57;;
5507;SDS011;2776;51.046;6.772;2024-03-22T02:05:12;14.80;;;5.53;;
5507;SDS011;2776;51.046;6.772;2024-03-22T02:07:40;15.80;;;7.40;;
5507;SDS011;2776;51.046;6.772;2024-03-22T02:10:06;13.63;;;6.57;;
5507;SDS011;2776;51.046;6.772;2024-03-22T02:12:35;13.90;;;7.40;;
5507;SDS011;2776;51.046;6.772;2024-03-22T02:15:03;16.10;;;6.60;;
5507;SDS011;2776;51.046;6.772;2024-03-22T02:17:31;13.40;;;6.43;;
5507;SDS011;2776;51.046;6.772;2024-03-22T02:19:57;12.53;;;6.77;;
5507;SDS011;2776;51.046;6.772;2024-03-22T02:22:24;12.07;;;6.87;;
5507;SDS011;2776;51.046;6.772;2024-03-22T02:24:52;13.03;;;6.33;;
5507;SDS011;2776;51.046;6.772;2024-03-22T02:27:19;9.43;;;5.93;;
5507;SDS011;2776;51.046;6.772;2024-03-22T02:29:45;12.47;;;6.73;;
5507;SDS011;2776;51.046;6.772;2024-03-22T02:32:11;13.10;;;6.27;;
5507;SDS011;2776;51.046;6.772;2024-03-22T02:34:37;10.30;;;5.00;;
5507;SDS011;2776;51.046;6.772;2024-03-22T02:37:04;11.27;;;5.53;;
5507;SDS011;2776;51.046;6.772;2024-03-22T02:39:30;13.23;;;5.43;;
5507;SDS011;2776;51.046;6.772;2024-03-22T02:41:58;11.13;;;5.80;;
5507;SDS011;2776;51.046;6.772;2024-03-22T02:44:24;13.70;;;6.43;;
5507;SDS011;2776;51.046;6.772;2024-03-22T02:46:50;10.70;;;6.00;;
5507;SDS011;2776;51.046;6.772;2024-03-22T02:49:16;11.40;;;5.90;;
5507;SDS011;2776;51.046;6.772;2024-03-22T02:51:43;8.87;;;5.00;;
5507;SDS011;2776;51.046;6.772;2024-03-22T02:54:09;13.70;;;6.43;;
5507;SDS011;2776;51.046;6.772;2024-03-22T02:56:35;9.70;;;5.60;;
5507;SDS011;2776;51.046;6.772;2024-03-22T02:59:02;9.67;;;5.63;;
5507;SDS011;2776;51.046;6.772;2024-03-22T03:01:29;11.30;;;6.27;;
5507;SDS011;2776;51.046;6.772;2024-03-22T03:03:55;11.10;;;5.77;;
5507;SDS011;2776;51.046;6.772;2024-03-22T03:06:21;8.30;;;5.20;;
5507;SDS011;2776;51.046;6.772;2024-03-22T03:08:47;10.97;;;5.30;;
5507;SDS011;2776;51.046;6.772;2024-03-22T03:11:14;12.50;;;5.60;;
5507;SDS011;2776;51.046;6.772;2024-03-22T03:13:40;11.30;;;5.63;;
5507;SDS011;2776;51.046;6.772;2024-03-22T03:16:08;9.00;;;5.23;;
5507;SDS011;2776;51.046;6.772;2024-03-22T03:18:34;10.30;;;5.27;;
5507;SDS011;2776;51.046;6.772;2024-03-22T03:21:00;11.13;;;5.20;;
5507;SDS011;2776;51.046;6.772;2024-03-22T03:23:27;9.80;;;5.63;;
5507;SDS011;2776;51.046;6.772;2024-03-22T03:25:53;8.97;;;5.57;;
5507;SDS011;2776;51.046;6.772;2024-03-22T03:28:19;11.33;;;6.23;;
5507;SDS011;2776;51.046;6.772;2024-03-22T03:30:45;9.90;;;5.17;;
5507;SDS011;2776;51.046;6.772;2024-03-22T03:33:13;9.00;;;5.20;;
5507;SDS011;2776;51.046;6.772;2024-03-22T03:35:39;12.60;;;5.30;;
5507;SDS011;2776;51.046;6.772;2024-03-22T03:38:06;12.57;;;5.30;;
5507;SDS011;2776;51.046;6.772;2024-03-22T03:40:32;14.60;;;5.13;;
5507;SDS011;2776;51.046;6.772;2024-03-22T03:42:58;9.37;;;5.03;;
5507;SDS011;2776;51.046;6.772;2024-03-22T03:45:24;9.87;;;5.10;;
5507;SDS011;2776;51.046;6.772;2024-03-22T03:47:51;11.47;;;5.17;;
5507;SDS011;2776;51.046;6.772;2024-03-22T03:50:18;12.27;;;5.30;;
5507;SDS011;2776;51.046;6.772;2024-03-22T03:52:45;12.73;;;5.90;;
5507;SDS011;2776;51.046;6.772;2024-03-22T03:55:10;12.03;;;5.00;;
5507;SDS011;2776;51.046;6.772;2024-03-22T03:57:37;11.43;;;4.83;;
5507;SDS011;2776;51.046;6.772;2024-03-22T04:00:03;10.13;;;5.20;;
5507;SDS011;2776;51.046;6.772;2024-03-22T04:02:31;8.50;;;4.83;;
5507;SDS011;2776;51.046;6.772;2024-03-22T04:04:56;7.30;;;5.00;;
5507;SDS011;2776;51.046;6.772;2024-03-22T04:07:25;9.27;;;5.47;;
5507;SDS011;2776;51.046;6.772;2024-03-22T04:09:50;12.03;;;5.77;;
5507;SDS011;2776;51.046;6.772;2024-03-22T04:12:17;8.83;;;4.80;;
5507;SDS011;2776;51.046;6.772;2024-03-22T04:14:43;8.77;;;4.83;;
5507;SDS011;2776;51.046;6.772;2024-03-22T04:17:10;7.73;;;4.60;;
5507;SDS011;2776;51.046;6.772;2024-03-22T04:19:36;7.30;;;4.50;;
5507;SDS011;2776;51.046;6.772;2024-03-22T04:22:03;8.37;;;4.73;;
5507;SDS011;2776;51.046;6.772;2024-03-22T04:24:30;8.07;;;4.73;;
5507;SDS011;2776;51.046;6.772;2024-03-22T04:26:57;9.63;;;4.70;;
5507;SDS011;2776;51.046;6.772;2024-03-22T04:29:22;6.80;;;4.27;;
5507;SDS011;2776;51.046;6.772;2024-03-22T04:31:49;10.70;;;5.87;;
5507;SDS011;2776;51.046;6.772;2024-03-22T04:34:15;10.20;;;5.47;;
5507;SDS011;2776;51.046;6.772;2024-03-22T04:36:42;7.90;;;5.00;;
5507;SDS011;2776;51.046;6.772;2024-03-22T04:39:08;10.27;;;4.87;;
5507;SDS011;2776;51.046;6.772;2024-03-22T04:41:38;11.47;;;4.63;;
5507;SDS011;2776;51.046;6.772;2024-03-22T04:44:05;10.37;;;5.43;;
5507;SDS011;2776;51.046;6.772;2024-03-22T04:46:32;9.70;;;5.03;;
5507;SDS011;2776;51.046;6.772;2024-03-22T04:48:57;9.60;;;4.83;;
5507;SDS011;2776;51.046;6.772;2024-03-22T04:51:24;7.57;;;4.43;;
5507;SDS011;2776;51.046;6.772;2024-03-22T04:53:50;8.03;;;5.30;;
5507;SDS011;2776;51.046;6.772;2024-03-22T04:56:16;12.80;;;6.00;;
5507;SDS011;2776;51.046;6.772;2024-03-22T04:58:45;8.20;;;5.63;;
5507;SDS011;2776;51.046;6.772;2024-03-22T05:01:10;8.07;;;5.47;;
5507;SDS011;2776;51.046;6.772;2024-03-22T05:03:38;8.63;;;4.93;;
5507;SDS011;2776;51.046;6.772;2024-03-22T05:06:04;11.60;;;5.83;;
5507;SDS011;2776;51.046;6.772;2024-03-22T05:08:31;10.97;;;5.73;;
5507;SDS011;2776;51.046;6.772;2024-03-22T05:10:57;10.07;;;5.13;;
5507;SDS011;2776;51.046;6.772;2024-03-22T05:13:24;12.27;;;5.30;;
5507;SDS011;2776;51.046;6.772;2024-03-22T05:15:51;10.60;;;5.20;;
5507;SDS011;2776;51.046;6.772;2024-03-22T05:18:18;8.93;;;5.43;;
5507;SDS011;2776;51.046;6.772;2024-03-22T05:20:44;10.43;;;5.87;;
5507;SDS011;2776;51.046;6.772;2024-03-22T05:23:10;14.37;;;6.20;;
5507;SDS011;2776;51.046;6.772;2024-03-22T05:25:36;10.77;;;5.37;;
5507;SDS011;2776;51.046;6.772;2024-03-22T05:28:03;11.00;;;6.17;;
5507;SDS011;2776;51.046;6.772;2024-03-22T05:30:29;11.60;;;6.23;;
5507;SDS011;2776;51.046;6.772;2024-03-22T05:32:57;12.27;;;7.00;;
5507;SDS011;2776;51.046;6.772;2024-03-22T05:35:22;14.67;;;8.97;;
5507;SDS011;2776;51.046;6.772;2024-03-22T05:37:49;15.57;;;8.93;;
5507;SDS011;2776;51.046;6.772;2024-03-22T05:40:15;15.63;;;9.00;;
5507;SDS011;2776;51.046;6.772;2024-03-22T05:42:42;20.97;;;9.00;;
5507;SDS011;2776;51.046;6.772;2024-03-22T05:45:08;20.90;;;9.10;;
5507;SDS011;2776;51.046;6.772;2024-03-22T05:47:35;16.13;;;7.60;;
5507;SDS011;2776;51.046;6.772;2024-03-22T05:50:04;15.57;;;9.10;;
5507;SDS011;2776;51.046;6.772;2024-03-22T05:52:33;18.00;;;10.00;;
5507;SDS011;2776;51.046;6.772;2024-03-22T05:54:59;18.23;;;8.80;;
5507;SDS011;2776;51.046;6.772;2024-03-22T05:57:26;17.30;;;9.50;;
5507;SDS011;2776;51.046;6.772;2024-03-22T05:59:51;18.57;;;8.57;;
5507;SDS011;2776;51.046;6.772;2024-03-22T06:02:19;17.13;;;9.07;;
5507;SDS011;2776;51.046;6.772;2024-03-22T06:04:45;14.77;;;8.73;;
5507;SDS011;2776;51.046;6.772;2024-03-22T06:07:13;14.50;;;8.80;;
5507;SDS011;2776;51.046;6.772;2024-03-22T06:09:42;19.20;;;9.90;;
5507;SDS011;2776;51.046;6.772;2024-03-22T06:12:10;16.90;;;10.57;;
5507;SDS011;2776;51.046;6.772;2024-03-22T06:14:37;16.57;;;10.67;;
5507;SDS011;2776;51.046;6.772;2024-03-22T06:17:04;16.90;;;9.47;;
5507;SDS011;2776;51.046;6.772;2024-03-22T06:19:31;14.97;;;9.57;;
5507;SDS011;2776;51.046;6.772;2024-03-22T06:21:57;16.30;;;10.70;;
5507;SDS011;2776;51.046;6.772;2024-03-22T06:24:25;19.93;;;10.70;;
5507;SDS011;2776;51.046;6.772;2024-03-22T06:26:51;21.90;;;11.03;;
5507;SDS011;2776;51.046;6.772;2024-03-22T06:29:17;17.67;;;10.20;;
5507;SDS011;2776;51.046;6.772;2024-03-22T06:31:43;20.43;;;10.47;;
5507;SDS011;2776;51.046;6.772;2024-03-22T06:34:10;18.43;;;9.77;;
5507;SDS011;2776;51.046;6.772;2024-03-22T06:36:36;19.20;;;11.43;;
5507;SDS011;2776;51.046;6.772;2024-03-22T06:39:02;21.33;;;11.93;;
5507;SDS011;2776;51.046;6.772;2024-03-22T06:41:33;19.10;;;10.87;;
5507;SDS011;2776;51.046;6.772;2024-03-22T06:44:00;25.63;;;11.60;;
5507;SDS011;2776;51.046;6.772;2024-03-22T06:46:26;20.47;;;10.83;;
5507;SDS011;2776;51.046;6.772;2024-03-22T06:48:53;19.37;;;10.27;;
5507;SDS011;2776;51.046;6.772;2024-03-22T06:51:19;19.73;;;10.33;;
5507;SDS011;2776;51.046;6.772;2024-03-22T06:53:46;17.53;;;10.70;;
5507;SDS011;2776;51.046;6.772;2024-03-22T06:56:13;17.47;;;11.13;;
5507;SDS011;2776;51.046;6.772;2024-03-22T06:58:41;17.17;;;10.10;;
5507;SDS011;2776;51.046;6.772;2024-03-22T07:01:06;20.73;;;11.70;;
5507;SDS011;2776;51.046;6.772;2024-03-22T07:03:34;18.97;;;11.00;;
5507;SDS011;2776;51.046;6.772;2024-03-22T07:06:00;20.63;;;11.50;;
5507;SDS011;2776;51.046;6.772;2024-03-22T07:08:26;19.13;;;11.60;;
5507;SDS011;2776;51.046;6.772;2024-03-22T07:10:53;22.40;;;11.83;;
5507;SDS011;2776;51.046;6.772;2024-03-22T07:13:20;20.37;;;11.00;;
5507;SDS011;2776;51.046;6.772;2024-03-22T07:15:47;24.90;;;12.30;;
5507;SDS011;2776;51.046;6.772;2024-03-22T07:18:14;19.17;;;11.07;;
5507;SDS011;2776;51.046;6.772;2024-03-22T07:20:40;19.83;;;11.83;;
5507;SDS011;2776;51.046;6.772;2024-03-22T07:23:07;19.67;;;10.50;;
5507;SDS011;2776;51.046;6.772;2024-03-22T07:25:33;16.90;;;10.40;;
5507;SDS011;2776;51.046;6.772;2024-03-22T07:28:00;19.37;;;10.17;;
5507;SDS011;2776;51.046;6.772;2024-03-22T07:30:26;21.97;;;9.43;;
5507;SDS011;2776;51.046;6.772;2024-03-22T07:32:54;17.70;;;8.73;;
5507;SDS011;2776;51.046;6.772;2024-03-22T07:35:19;13.97;;;8.03;;
5507;SDS011;2776;51.046;6.772;2024-03-22T07:37:46;12.20;;;8.13;;
5507;SDS011;2776;51.046;6.772;2024-03-22T07:40:12;15.97;;;8.50;;
5507;SDS011;2776;51.046;6.772;2024-03-22T07:42:39;14.70;;;7.97;;
5507;SDS011;2776;51.046;6.772;2024-03-22T07:45:05;14.50;;;8.50;;
5507;SDS011;2776;51.046;6.772;2024-03-22T07:47:32;14.43;;;8.63;;
5507;SDS011;2776;51.046;6.772;2024-03-22T07:50:00;16.63;;;7.83;;
5507;SDS011;2776;51.046;6.772;2024-03-22T07:52:27;11.10;;;7.63;;
5507;SDS011;2776;51.046;6.772;2024-03-22T07:54:53;13.53;;;7.27;;
5507;SDS011;2776;51.046;6.772;2024-03-22T07:57:20;11.40;;;7.53;;
5507;SDS011;2776;51.046;6.772;2024-03-22T07:59:46;14.53;;;8.43;;
5507;SDS011;2776;51.046;6.772;2024-03-22T08:02:12;13.17;;;7.60;;
5507;SDS011;2776;51.046;6.772;2024-03-22T08:04:38;11.20;;;7.73;;
5507;SDS011;2776;51.046;6.772;2024-03-22T08:07:06;11.43;;;7.03;;
5507;SDS011;2776;51.046;6.772;2024-03-22T08:09:32;12.37;;;7.37;;
5507;SDS011;2776;51.046;6.772;2024-03-22T08:11:59;11.87;;;6.80;;
5507;SDS011;2776;51.046;6.772;2024-03-22T08:14:24;10.30;;;6.67;;
5507;SDS011;2776;51.046;6.772;2024-03-22T08:16:51;12.07;;;7.32;;
5507;SDS011;2776;51.046;6.772;2024-03-22T08:19:17;10.88;;;6.55;;
5507;SDS011;2776;51.046;6.772;2024-03-22T08:21:43;14.00;;;7.63;;
5507;SDS011;2776;51.046;6.772;2024-03-22T08:24:11;13.48;;;7.60;;
5507;SDS011;2776;51.046;6.772;2024-03-22T08:26:37;12.25;;;8.00;;
5507;SDS011;2776;51.046;6.772;2024-03-22T08:29:03;10.93;;;6.87;;
5507;SDS011;2776;51.046;6.772;2024-03-22T08:31:30;11.97;;;6.70;;
5507;SDS011;2776;51.046;6.772;2024-03-22T08:33:55;9.80;;;6.37;;
5507;SDS011;2776;51.046;6.772;2024-03-22T08:36:22;14.77;;;7.83;;
5507;SDS011;2776;51.046;6.772;2024-03-22T08:38:48;12.90;;;6.97;;
5507;SDS011;2776;51.046;6.772;2024-03-22T08:41:16;15.43;;;7.30;;
5507;SDS011;2776;51.046;6.772;2024-03-22T08:43:42;11.93;;;6.90;;
5507;SDS011;2776;51.046;6.772;2024-03-22T08:46:10;11.57;;;6.87;;
5507;SDS011;2776;51.046;6.772;2024-03-22T08:48:36;13.80;;;7.43;;
5507;SDS011;2776;51.046;6.772;2024-03-22T08:51:03;14.03;;;7.33;;
5507;SDS011;2776;51.046;6.772;2024-03-22T08:53:28;12.63;;;6.93;;
5507;SDS011;2776;51.046;6.772;2024-03-22T08:55:55;11.83;;;6.60;;
5507;SDS011;2776;51.046;6.772;2024-03-22T08:58:22;11.57;;;6.63;;
5507;SDS011;2776;51.046;6.772;2024-03-22T09:00:49;13.23;;;7.17;;
5507;SDS011;2776;51.046;6.772;2024-03-22T09:03:15;13.95;;;6.40;;
5507;SDS011;2776;51.046;6.772;2024-03-22T09:05:43;12.75;;;7.28;;
5507;SDS011;2776;51.046;6.772;2024-03-22T09:08:08;9.20;;;6.37;;
5507;SDS011;2776;51.046;6.772;2024-03-22T09:10:35;11.35;;;7.28;;
5507;SDS011;2776;51.046;6.772;2024-03-22T09:13:01;11.10;;;6.40;;
5507;SDS011;2776;51.046;6.772;2024-03-22T09:15:29;10.30;;;6.50;;
5507;SDS011;2776;51.046;6.772;2024-03-22T09:17:56;9.38;;;5.82;;
5507;SDS011;2776;51.046;6.772;2024-03-22T09:20:22;10.75;;;6.90;;
5507;SDS011;2776;51.046;6.772;2024-03-22T09:22:48;12.50;;;6.35;;
5507;SDS011;2776;51.046;6.772;2024-03-22T09:25:15;10.60;;;5.95;;
5507;SDS011;2776;51.046;6.772;2024-03-22T09:27:41;9.27;;;6.13;;
5507;SDS011;2776;51.046;6.772;2024-03-22T09:30:08;11.73;;;6.47;;
5507;SDS011;2776;51.046;6.772;2024-03-22T09:32:36;8.98;;;5.97;;
5507;SDS011;2776;51.046;6.772;2024-03-22T09:35:02;9.25;;;6.15;;
5507;SDS011;2776;51.046;6.772;2024-03-22T09:37:29;11.70;;;6.30;;
5507;SDS011;2776;51.046;6.772;2024-03-22T09:39:55;13.15;;;6.93;;
5507;SDS011;2776;51.046;6.772;2024-03-22T09:42:22;11.20;;;6.35;;
5507;SDS011;2776;51.046;6.772;2024-03-22T09:44:48;8.47;;;6.30;;
5507;SDS011;2776;51.046;6.772;2024-03-22T09:47:16;8.27;;;5.43;;
5507;SDS011;2776;51.046;6.772;2024-03-22T09:49:43;10.27;;;5.93;;
5507;SDS011;2776;51.046;6.772;2024-03-22T09:52:11;10.77;;;5.50;;
5507;SDS011;2776;51.046;6.772;2024-03-22T09:54:38;10.93;;;5.38;;
5507;SDS011;2776;51.046;6.772;2024-03-22T09:57:08;9.95;;;4.82;;
5507;SDS011;2776;51.046;6.772;2024-03-22T09:59:36;9.65;;;5.55;;
5507;SDS011;2776;51.046;6.772;2024-03-22T10:02:04;10.73;;;5.68;;
5507;SDS011;2776;51.046;6.772;2024-03-22T10:04:30;6.13;;;5.00;;
5507;SDS011;2776;51.046;6.772;2024-03-22T10:06:58;9.48;;;5.25;;
5507;SDS011;2776;51.046;6.772;2024-03-22T10:09:28;7.68;;;5.30;;
5507;SDS011;2776;51.046;6.772;2024-03-22T10:11:55;11.82;;;5.55;;
5507;SDS011;2776;51.046;6.772;2024-03-22T10:14:21;10.00;;;5.18;;
5507;SDS011;2776;51.046;6.772;2024-03-22T10:16:50;10.35;;;5.78;;
5507;SDS011;2776;51.046;6.772;2024-03-22T10:19:18;10.77;;;6.40;;
5507;SDS011;2776;51.046;6.772;2024-03-22T10:21:45;11.30;;;6.37;;
5507;SDS011;2776;51.046;6.772;2024-03-22T10:24:12;11.77;;;5.83;;
5507;SDS011;2776;51.046;6.772;2024-03-22T10:26:39;10.60;;;6.30;;
5507;SDS011;2776;51.046;6.772;2024-03-22T10:29:05;10.30;;;6.97;;
5507;SDS011;2776;51.046;6.772;2024-03-22T10:31:34;11.40;;;7.00;;
5507;SDS011;2776;51.046;6.772;2024-03-22T10:34:00;10.83;;;7.23;;
5507;SDS011;2776;51.046;6.772;2024-03-22T10:36:29;12.67;;;7.47;;
5507;SDS011;2776;51.046;6.772;2024-03-22T10:38:57;11.80;;;6.70;;
5507;SDS011;2776;51.046;6.772;2024-03-22T10:41:28;10.50;;;6.67;;
5507;SDS011;2776;51.046;6.772;2024-03-22T10:43:53;16.27;;;7.20;;
5507;SDS011;2776;51.046;6.772;2024-03-22T10:46:21;9.67;;;7.27;;
5507;SDS011;2776;51.046;6.772;2024-03-22T10:48:48;12.30;;;7.63;;
5507;SDS011;2776;51.046;6.772;2024-03-22T10:51:15;10.53;;;8.20;;
5507;SDS011;2776;51.046;6.772;2024-03-22T10:53:42;11.77;;;7.28;;
5507;SDS011;2776;51.046;6.772;2024-03-22T10:56:10;12.23;;;7.77;;
5507;SDS011;2776;51.046;6.772;2024-03-22T10:58:40;14.07;;;8.77;;
5507;SDS011;2776;51.046;6.772;2024-03-22T11:01:11;14.80;;;8.77;;
5507;SDS011;2776;51.046;6.772;2024-03-22T11:03:47;13.23;;;8.53;;
5507;SDS011;2776;51.046;6.772;2024-03-22T11:06:17;13.67;;;8.10;;
5507;SDS011;2776;51.046;6.772;2024-03-22T11:08:44;17.20;;;8.90;;
5507;SDS011;2776;51.046;6.772;2024-03-22T11:11:17;12.40;;;8.47;;
5507;SDS011;2776;51.046;6.772;2024-03-22T11:13:46;13.40;;;8.13;;
5507;SDS011;2776;51.046;6.772;2024-03-22T11:16:14;12.23;;;8.83;;
5507;SDS011;2776;51.046;6.772;2024-03-22T11:18:40;13.70;;;8.13;;
5507;SDS011;2776;51.046;6.772;2024-03-22T11:21:07;11.03;;;7.40;;
5507;SDS011;2776;51.046;6.772;2024-03-22T11:23:34;10.03;;;7.30;;
5507;SDS011;2776;51.046;6.772;2024-03-22T11:26:01;14.30;;;8.23;;
5507;SDS011;2776;51.046;6.772;2024-03-22T11:28:27;15.90;;;8.00;;
5507;SDS011;2776;51.046;6.772;2024-03-22T11:30:55;14.23;;;8.67;;
5507;SDS011;2776;51.046;6.772;2024-03-22T11:33:21;12.20;;;8.07;;
5507;SDS011;2776;51.046;6.772;2024-03-22T11:35:48;12.27;;;7.90;;
5507;SDS011;2776;51.046;6.772;2024-03-22T11:38:14;13.20;;;8.10;;
5507;SDS011;2776;51.046;6.772;2024-03-22T11:40:42;16.33;;;8.50;;
5507;SDS011;2776;51.046;6.772;2024-03-22T11:43:08;12.43;;;8.17;;
5507;SDS011;2776;51.046;6.772;2024-03-22T11:45:36;12.17;;;7.67;;
5507;SDS011;2776;51.046;6.772;2024-03-22T11:48:05;12.97;;;7.67;;
5507;SDS011;2776;51.046;6.772;2024-03-22T11:50:32;12.25;;;7.57;;
5507;SDS011;2776;51.046;6.772;2024-03-22T11:52:58;12.38;;;7.65;;
5507;SDS011;2776;51.046;6.772;2024-03-22T11:55:26;11.52;;;6.88;;
5507;SDS011;2776;51.046;6.772;2024-03-22T11:57:52;11.50;;;7.93;;
5507;SDS011;2776;51.046;6.772;2024-03-22T12:00:19;12.18;;;7.50;;
5507;SDS011;2776;51.046;6.772;2024-03-22T12:02:47;8.48;;;6.53;;
5507;SDS011;2776;51.046;6.772;2024-03-22T12:05:16;12.02;;;8.10;;
5507;SDS011;2776;51.046;6.772;2024-03-22T12:07:43;14.13;;;8.33;;
5507;SDS011;2776;51.046;6.772;2024-03-22T12:10:10;12.07;;;8.20;;
5507;SDS011;2776;51.046;6.772;2024-03-22T12:12:36;12.63;;;8.30;;
5507;SDS011;2776;51.046;6.772;2024-03-22T12:15:03;11.82;;;7.18;;
5507;SDS011;2776;51.046;6.772;2024-03-22T12:17:29;14.27;;;7.80;;
5507;SDS011;2776;51.046;6.772;2024-03-22T12:19:56;12.63;;;7.50;;
5507;SDS011;2776;51.046;6.772;2024-03-22T12:22:23;9.90;;;7.33;;
5507;SDS011;2776;51.046;6.772;2024-03-22T12:24:50;11.70;;;6.77;;
5507;SDS011;2776;51.046;6.772;2024-03-22T12:27:16;13.07;;;7.50;;
5507;SDS011;2776;51.046;6.772;2024-03-22T12:29:43;16.40;;;7.67;;
5507;SDS011;2776;51.046;6.772;2024-03-22T12:32:09;10.80;;;7.17;;
5507;SDS011;2776;51.046;6.772;2024-03-22T12:34:35;12.83;;;6.70;;
5507;SDS011;2776;51.046;6.772;2024-03-22T12:37:02;11.13;;;7.40;;
5507;SDS011;2776;51.046;6.772;2024-03-22T12:39:30;12.30;;;7.87;;
5507;SDS011;2776;51.046;6.772;2024-03-22T12:41:57;13.57;;;8.10;;
5507;SDS011;2776;51.046;6.772;2024-03-22T12:44:24;13.07;;;8.57;;
5507;SDS011;2776;51.046;6.772;2024-03-22T12:46:51;10.97;;;7.93;;
5507;SDS011;2776;51.046;6.772;2024-03-22T12:49:19;13.37;;;8.17;;
5507;SDS011;2776;51.046;6.772;2024-03-22T12:51:46;13.70;;;8.10;;
5507;SDS011;2776;51.046;6.772;2024-03-22T12:54:12;14.37;;;8.30;;
5507;SDS011;2776;51.046;6.772;2024-03-22T12:56:44;17.87;;;9.40;;
5507;SDS011;2776;51.046;6.772;2024-03-22T12:59:10;13.63;;;8.00;;
5507;SDS011;2776;51.046;6.772;2024-03-22T13:01:37;14.33;;;7.97;;
5507;SDS011;2776;51.046;6.772;2024-03-22T13:04:03;11.67;;;7.90;;
5507;SDS011;2776;51.046;6.772;2024-03-22T13:06:30;11.27;;;7.13;;
5507;SDS011;2776;51.046;6.772;2024-03-22T13:08:56;11.73;;;7.97;;
5507;SDS011;2776;51.046;6.772;2024-03-22T13:11:23;12.02;;;7.15;;
5507;SDS011;2776;51.046;6.772;2024-03-22T13:13:50;12.48;;;6.25;;
5507;SDS011;2776;51.046;6.772;2024-03-22T13:16:16;12.45;;;6.90;;
5507;SDS011;2776;51.046;6.772;2024-03-22T13:18:42;9.57;;;6.77;;
5507;SDS011;2776;51.046;6.772;2024-03-22T13:21:09;9.00;;;6.15;;
5507;SDS011;2776;51.046;6.772;2024-03-22T13:23:36;11.10;;;6.93;;
5507;SDS011;2776;51.046;6.772;2024-03-22T13:26:03;10.18;;;6.30;;
5507;SDS011;2776;51.046;6.772;2024-03-22T13:28:29;9.13;;;5.60;;
5507;SDS011;2776;51.046;6.772;2024-03-22T13:31:01;7.85;;;5.82;;
5507;SDS011;2776;51.046;6.772;2024-03-22T13:33:28;9.03;;;5.83;;
5507;SDS011;2776;51.046;6.772;2024-03-22T13:35:54;8.68;;;6.07;;
5507;SDS011;2776;51.046;6.772;2024-03-22T13:38:20;10.10;;;5.30;;
5507;SDS011;2776;51.046;6.772;2024-03-22T13:40:52;10.90;;;6.43;;
5507;SDS011;2776;51.046;6.772;2024-03-22T13:43:18;10.03;;;6.43;;
5507;SDS011;2776;51.046;6.772;2024-03-22T13:45:46;8.32;;;5.65;;
5507;SDS011;2776;51.046;6.772;2024-03-22T13:48:15;11.27;;;6.30;;
5507;SDS011;2776;51.046;6.772;2024-03-22T13:50:42;9.90;;;6.20;;
5507;SDS011;2776;51.046;6.772;2024-03-22T13:53:08;11.37;;;6.17;;
5507;SDS011;2776;51.046;6.772;2024-03-22T13:55:35;10.20;;;5.70;;
5507;SDS011;2776;51.046;6.772;2024-03-22T13:58:01;11.37;;;6.57;;
5507;SDS011;2776;51.046;6.772;2024-03-22T14:00:28;12.30;;;5.80;;
5507;SDS011;2776;51.046;6.772;2024-03-22T14:02:54;10.00;;;7.03;;
5507;SDS011;2776;51.046;6.772;2024-03-22T14:05:22;10.93;;;6.97;;
5507;SDS011;2776;51.046;6.772;2024-03-22T14:07:49;10.10;;;6.13;;
5507;SDS011;2776;51.046;6.772;2024-03-22T14:10:16;11.60;;;6.77;;
5507;SDS011;2776;51.046;6.772;2024-03-22T14:12:42;10.40;;;6.37;;
5507;SDS011;2776;51.046;6.772;2024-03-22T14:15:08;11.40;;;6.83;;
5507;SDS011;2776;51.046;6.772;2024-03-22T14:17:34;11.30;;;6.63;;
5507;SDS011;2776;51.046;6.772;2024-03-22T14:20:01;13.57;;;7.40;;
5507;SDS011;2776;51.046;6.772;2024-03-22T14:22:32;10.17;;;7.07;;
5507;SDS011;2776;51.046;6.772;2024-03-22T14:24:59;11.17;;;6.93;;
5507;SDS011;2776;51.046;6.772;2024-03-22T14:27:25;11.47;;;6.30;;
5507;SDS011;2776;51.046;6.772;2024-03-22T14:29:51;10.57;;;7.33;;
5507;SDS011;2776;51.046;6.772;2024-03-22T14:32:17;12.40;;;6.43;;
5507;SDS011;2776;51.046;6.772;2024-03-22T14:34:44;9.40;;;6.17;;
5507;SDS011;2776;51.046;6.772;2024-03-22T14:37:10;8.03;;;5.87;;
5507;SDS011;2776;51.046;6.772;2024-03-22T14:39:38;12.33;;;6.40;;
5507;SDS011;2776;51.046;6.772;2024-03-22T14:42:06;12.27;;;6.87;;
5507;SDS011;2776;51.046;6.772;2024-03-22T14:44:33;9.60;;;6.10;;
5507;SDS011;2776;51.046;6.772;2024-03-22T14:46:59;10.77;;;6.50;;
5507;SDS011;2776;51.046;6.772;2024-03-22T14:49:25;8.87;;;6.23;;
5507;SDS011;2776;51.046;6.772;2024-03-22T14:51:51;10.87;;;7.00;;
5507;SDS011;2776;51.046;6.772;2024-03-22T14:54:18;10.10;;;6.60;;
5507;SDS011;2776;51.046;6.772;2024-03-22T14:56:45;11.33;;;7.07;;
5507;SDS011;2776;51.046;6.772;2024-03-22T14:59:12;12.27;;;5.90;;